createdAt,value
2019-04-14T00:00:53.366Z,11.90
2019-04-14T00:03:39.105Z,10.20
2019-04-14T00:06:09.008Z,10.98
2019-04-14T00:08:39.361Z,13.22
2019-04-14T00:11:08.412Z,14.58
2019-04-14T00:13:37.193Z,11.83
2019-04-14T00:16:05.975Z,12.40
2019-04-14T00:18:35.664Z,11.97
2019-04-14T00:21:04.743Z,10.03
2019-04-14T00:23:34.741Z,10.03
2019-04-14T00:26:29.358Z,10.70
2019-04-14T00:29:00.064Z,7.42
2019-04-14T00:31:30.762Z,9.68
2019-04-14T00:34:01.271Z,12.43
2019-04-14T00:36:34.880Z,8.73
2019-04-14T00:39:05.494Z,9.13
2019-04-14T00:41:48.482Z,9.53
2019-04-14T00:44:14.659Z,8.95
2019-04-14T00:46:45.299Z,11.90
2019-04-14T00:49:14.180Z,9.40
2019-04-14T00:51:44.000Z,10.35
2019-04-14T00:54:13.246Z,16.17
2019-04-14T00:56:43.260Z,12.80
2019-04-14T00:59:12.183Z,7.95
2019-04-14T01:01:41.641Z,7.85
2019-04-14T01:04:10.872Z,8.08
2019-04-14T01:06:40.457Z,8.90
2019-04-14T01:09:11.193Z,12.23
2019-04-14T01:11:42.106Z,13.03
2019-04-14T01:14:11.021Z,9.48
2019-04-14T01:16:40.838Z,9.50
2019-04-14T01:19:09.706Z,11.57
2019-04-14T01:21:39.202Z,11.70
2019-04-14T01:24:08.073Z,11.03
2019-04-14T01:26:37.729Z,11.40
2019-04-14T01:29:07.908Z,12.00
2019-04-14T01:31:38.141Z,11.08
2019-04-14T01:34:07.029Z,13.60
2019-04-14T01:36:36.674Z,13.95
2019-04-14T01:39:06.999Z,9.55
2019-04-14T01:41:36.799Z,10.18
2019-04-14T01:44:06.749Z,8.13
2019-04-14T01:46:36.145Z,8.63
2019-04-14T01:49:07.223Z,9.38
2019-04-14T01:51:44.222Z,10.68
2019-04-14T01:54:17.456Z,9.03
2019-04-14T01:56:47.870Z,10.13
2019-04-14T01:59:17.666Z,9.00
2019-04-14T02:01:48.085Z,9.30
2019-04-14T02:04:17.930Z,10.50
2019-04-14T02:06:48.315Z,8.95
2019-04-14T02:09:18.640Z,9.20
2019-04-14T02:11:48.732Z,8.20
2019-04-14T02:14:18.971Z,8.65
2019-04-14T02:16:53.590Z,11.65
2019-04-14T02:19:18.363Z,9.93
2019-04-14T02:21:47.805Z,10.15
2019-04-14T02:24:17.799Z,7.03
2019-04-14T02:26:47.929Z,10.48
2019-04-14T02:29:16.889Z,8.83
2019-04-14T02:32:13.786Z,9.95
2019-04-14T02:34:49.434Z,9.05
2019-04-14T02:37:24.371Z,8.38
2019-04-14T02:39:48.242Z,8.18
2019-04-14T02:42:27.696Z,11.25
2019-04-14T02:44:45.919Z,10.80
2019-04-14T02:47:37.951Z,9.78
2019-04-14T02:49:51.152Z,9.90
2019-04-14T02:54:51.738Z,9.65
2019-04-14T02:57:18.986Z,8.13
2019-04-14T03:04:50.785Z,7.95
2019-04-14T03:07:22.618Z,6.55
2019-04-14T03:09:49.608Z,7.65
2019-04-14T03:12:29.118Z,9.45
2019-04-14T03:20:07.508Z,8.20
2019-04-14T03:24:52.209Z,10.08
2019-04-14T03:27:43.873Z,10.88
2019-04-14T03:33:11.018Z,14.00
2019-04-14T03:35:44.078Z,12.58
2019-04-14T03:40:08.604Z,10.08
2019-04-14T03:42:43.887Z,10.15
2019-04-14T03:45:16.691Z,10.78
2019-04-14T03:47:44.199Z,7.42
2019-04-14T03:50:16.894Z,7.37
2019-04-14T03:52:51.944Z,8.23
2019-04-14T03:55:05.778Z,13.70
2019-04-14T03:57:19.605Z,9.00
2019-04-14T03:59:48.391Z,10.03
2019-04-14T04:02:18.196Z,10.45
2019-04-14T04:04:48.849Z,7.80
2019-04-14T04:07:17.717Z,8.08
2019-04-14T04:09:51.817Z,7.30
2019-04-14T04:12:20.665Z,6.08
2019-04-14T04:14:49.441Z,8.40
2019-04-14T04:17:23.304Z,9.50
2019-04-14T04:19:53.726Z,7.37
2019-04-14T04:22:41.195Z,12.00
2019-04-14T04:25:20.835Z,10.82
2019-04-14T04:27:54.771Z,6.70
2019-04-14T04:30:42.680Z,4.58
2019-04-14T04:33:28.475Z,10.13
2019-04-14T04:36:01.529Z,7.53
2019-04-14T04:38:31.976Z,5.22
2019-04-14T04:41:01.592Z,6.25
2019-04-14T04:43:30.413Z,6.28
2019-04-14T04:46:00.482Z,6.58
2019-04-14T04:48:30.615Z,4.50
2019-04-14T04:51:00.583Z,5.00
2019-04-14T04:53:29.473Z,8.13
2019-04-14T04:55:59.305Z,4.75
2019-04-14T04:58:28.406Z,5.15
2019-04-14T05:00:57.675Z,5.70
2019-04-14T05:03:27.595Z,5.75
2019-04-14T05:06:30.842Z,6.67
2019-04-14T05:09:07.931Z,4.35
2019-04-14T05:11:38.450Z,4.92
2019-04-14T05:14:12.977Z,4.53
2019-04-14T05:16:44.007Z,5.08
2019-04-14T05:19:23.003Z,5.53
2019-04-14T05:21:43.324Z,6.85
2019-04-14T05:24:12.106Z,6.25
2019-04-14T05:26:41.758Z,6.67
2019-04-14T05:29:10.597Z,5.20
2019-04-14T05:31:40.344Z,7.15
2019-04-14T05:34:09.277Z,9.83
2019-04-14T05:36:38.873Z,8.25
2019-04-14T05:39:08.875Z,5.83
2019-04-14T05:41:37.841Z,5.58
2019-04-14T05:44:07.822Z,5.92
2019-04-14T05:46:36.794Z,6.70
2019-04-14T05:49:06.567Z,4.50
2019-04-14T05:51:35.396Z,3.87
2019-04-14T05:54:04.199Z,8.28
2019-04-14T05:56:35.074Z,6.15
2019-04-14T05:59:05.246Z,5.72
2019-04-14T06:01:34.533Z,8.18
2019-04-14T06:04:04.950Z,5.15
2019-04-14T06:06:33.725Z,5.17
2019-04-14T06:09:02.573Z,4.80
2019-04-14T06:11:31.386Z,4.72
2019-04-14T06:14:00.156Z,5.67
2019-04-14T06:16:28.964Z,5.60
2019-04-14T06:18:57.748Z,6.50
2019-04-14T06:21:26.519Z,3.80
2019-04-14T06:23:55.798Z,4.40
2019-04-14T06:26:27.532Z,4.85
2019-04-14T06:28:56.471Z,5.35
2019-04-14T06:31:29.853Z,4.45
2019-04-14T06:34:00.265Z,5.35
2019-04-14T06:36:33.661Z,4.20
2019-04-14T06:39:10.266Z,5.50
2019-04-14T06:41:39.053Z,4.90
2019-04-14T06:44:07.908Z,4.67
2019-04-14T06:46:36.721Z,4.83
2019-04-14T06:49:05.505Z,5.78
2019-04-14T06:51:34.281Z,5.47
2019-04-14T06:54:03.059Z,4.75
2019-04-14T06:56:31.833Z,6.25
2019-04-14T06:59:00.645Z,5.92
2019-04-14T07:01:29.422Z,4.75
2019-04-14T07:03:58.196Z,6.90
2019-04-14T07:06:27.002Z,9.55
2019-04-14T07:08:56.697Z,6.62
2019-04-14T07:11:25.534Z,6.92
2019-04-14T07:13:54.317Z,6.70
2019-04-14T07:16:23.089Z,6.58
2019-04-14T07:18:51.881Z,6.28
2019-04-14T07:21:20.653Z,6.65
2019-04-14T07:23:49.461Z,4.97
2019-04-14T07:26:18.230Z,7.28
2019-04-14T07:28:56.582Z,16.20
2019-04-14T07:31:19.078Z,4.30
2019-04-14T07:33:49.492Z,4.53
2019-04-14T07:36:36.429Z,9.73
2019-04-14T07:39:20.314Z,5.72
2019-04-14T07:41:59.782Z,6.53
2019-04-14T07:44:32.623Z,4.67
2019-04-14T07:47:05.868Z,4.55
2019-04-14T07:49:45.449Z,3.85
2019-04-14T07:52:18.909Z,5.15
2019-04-14T07:55:07.405Z,7.45
2019-04-14T07:57:55.575Z,5.12
2019-04-14T08:00:34.866Z,7.00
2019-04-14T08:03:17.481Z,5.45
2019-04-14T08:08:14.799Z,8.90
2019-04-14T08:10:44.539Z,9.58
2019-04-14T08:13:13.305Z,4.25
2019-04-14T08:15:42.094Z,6.12
2019-04-14T08:18:10.883Z,4.80
2019-04-14T08:20:39.698Z,6.67
2019-04-14T08:23:08.478Z,5.22
2019-04-14T08:25:37.259Z,3.92
2019-04-14T08:28:06.277Z,5.03
2019-04-14T08:30:35.051Z,9.08
2019-04-14T08:33:03.925Z,5.72
2019-04-14T08:35:32.749Z,2.47
2019-04-14T08:38:01.736Z,5.72
2019-04-14T08:40:30.593Z,8.20
2019-04-14T08:43:01.026Z,4.05
2019-04-14T08:45:37.597Z,5.20
2019-04-14T08:48:24.261Z,7.10
2019-04-14T08:51:03.976Z,14.87
2019-04-14T08:53:34.433Z,4.40
2019-04-14T08:56:08.278Z,3.80
2019-04-14T08:58:38.725Z,3.75
2019-04-14T09:01:09.149Z,4.12
2019-04-14T09:03:45.585Z,3.17
2019-04-14T09:06:18.715Z,8.15
2019-04-14T09:08:49.142Z,9.55
2019-04-14T09:11:31.589Z,18.92
2019-04-14T09:14:00.377Z,2.33
2019-04-14T09:16:29.157Z,6.40
2019-04-14T09:19:07.162Z,8.70
2019-04-14T09:21:28.394Z,3.75
2019-04-14T09:23:58.325Z,7.97
2019-04-14T09:26:27.097Z,2.85
2019-04-14T09:28:55.878Z,7.25
2019-04-14T09:31:24.709Z,5.05
2019-04-14T09:33:53.662Z,3.27
2019-04-14T09:36:22.442Z,2.90
2019-04-14T09:38:51.229Z,4.10
2019-04-14T09:41:20.030Z,5.05
2019-04-14T09:43:49.443Z,3.30
2019-04-14T09:46:18.151Z,5.05
2019-04-14T09:48:46.941Z,4.58
2019-04-14T09:51:15.722Z,2.25
2019-04-14T09:53:44.549Z,3.62
2019-04-14T09:56:13.361Z,2.83
2019-04-14T09:58:42.149Z,3.80
2019-04-14T10:01:10.934Z,6.17
2019-04-14T10:03:39.798Z,5.53
2019-04-14T10:06:08.594Z,5.75
2019-04-14T10:08:38.378Z,4.75
2019-04-14T10:11:07.249Z,4.28
2019-04-14T10:13:37.286Z,6.70
2019-04-14T10:16:06.160Z,4.05
2019-04-14T10:18:35.173Z,11.18
2019-04-14T10:21:16.523Z,4.97
2019-04-14T10:23:34.410Z,2.70
2019-04-14T10:26:03.261Z,4.35
2019-04-14T10:28:32.045Z,5.03
2019-04-14T10:31:00.839Z,3.92
2019-04-14T10:33:29.646Z,4.03
2019-04-14T10:35:58.437Z,6.70
2019-04-14T10:38:27.231Z,6.03
2019-04-14T10:40:56.005Z,4.65
2019-04-14T10:43:24.787Z,5.37
2019-04-14T10:45:53.597Z,3.77
2019-04-14T10:48:22.374Z,3.90
2019-04-14T10:50:51.261Z,4.00
2019-04-14T10:53:20.026Z,3.40
2019-04-14T10:55:48.801Z,4.33
2019-04-14T10:58:17.626Z,2.40
2019-04-14T11:00:46.476Z,2.95
2019-04-14T11:03:15.246Z,5.78
2019-04-14T11:06:00.846Z,3.27
2019-04-14T11:08:31.333Z,6.55
2019-04-14T11:11:00.146Z,5.62
2019-04-14T11:13:28.929Z,4.28
2019-04-14T11:15:58.613Z,4.72
2019-04-14T11:18:27.524Z,3.62
2019-04-14T11:20:56.293Z,4.53
2019-04-14T11:23:25.121Z,6.85
2019-04-14T11:25:53.925Z,4.60
2019-04-14T11:28:22.700Z,3.72
2019-04-14T11:30:51.569Z,6.65
2019-04-14T11:33:37.337Z,9.10
2019-04-14T11:36:07.828Z,4.72
2019-04-14T11:38:40.949Z,9.28
2019-04-14T11:41:14.385Z,4.87
2019-04-14T11:43:43.245Z,5.53
2019-04-14T11:46:12.126Z,10.45
2019-04-14T11:48:41.007Z,5.92
2019-04-14T11:51:09.808Z,5.95
2019-04-14T11:53:38.557Z,4.47
2019-04-14T11:56:07.334Z,2.75
2019-04-14T11:58:36.329Z,3.62
2019-04-14T12:01:22.990Z,10.65
2019-04-14T12:04:09.849Z,4.37
2019-04-14T12:06:58.257Z,6.33
2019-04-14T12:09:31.624Z,7.28
2019-04-14T12:12:00.579Z,5.95
2019-04-14T12:14:29.746Z,4.05
2019-04-14T12:17:00.511Z,6.45
2019-04-14T12:19:29.520Z,5.50
2019-04-14T12:22:08.171Z,7.15
2019-04-14T12:24:28.847Z,3.52
2019-04-14T12:26:57.752Z,4.22
2019-04-14T12:29:26.517Z,7.75
2019-04-14T12:31:55.605Z,3.33
2019-04-14T12:34:24.494Z,3.52
2019-04-14T12:36:53.592Z,5.05
2019-04-14T12:39:24.510Z,8.55
2019-04-14T12:41:55.168Z,4.20
2019-04-14T12:44:28.623Z,6.30
2019-04-14T12:47:12.513Z,6.35
2019-04-14T12:49:42.925Z,4.03
2019-04-14T12:52:21.282Z,6.62
2019-04-14T12:54:46.543Z,6.60
2019-04-14T12:57:17.073Z,4.08
2019-04-14T12:59:46.070Z,4.22
2019-04-14T13:02:16.574Z,3.70
2019-04-14T13:04:46.608Z,8.03
2019-04-14T13:07:15.503Z,6.28
2019-04-14T13:09:44.495Z,5.58
2019-04-14T13:12:13.321Z,7.53
2019-04-14T13:14:42.100Z,9.73
2019-04-14T13:17:11.038Z,4.55
2019-04-14T13:19:39.824Z,6.00
2019-04-14T13:22:08.671Z,6.50
2019-04-14T13:24:38.017Z,5.83
2019-04-14T13:27:06.864Z,5.10
2019-04-14T13:29:35.645Z,5.30
2019-04-14T13:32:05.493Z,7.30
2019-04-14T13:34:34.443Z,13.18
2019-04-14T13:37:03.213Z,8.35
2019-04-14T13:39:31.997Z,10.55
2019-04-14T13:42:00.780Z,6.25
2019-04-14T13:44:29.565Z,7.15
2019-04-14T13:46:58.386Z,4.28
2019-04-14T13:49:27.165Z,10.35
2019-04-14T13:51:55.934Z,7.20
2019-04-14T13:54:24.713Z,6.80
2019-04-14T13:56:53.485Z,4.95
2019-04-14T13:59:22.310Z,6.47
2019-04-14T14:01:51.089Z,5.28
2019-04-14T14:04:19.861Z,3.37
2019-04-14T14:06:48.650Z,3.55
2019-04-14T14:09:26.676Z,6.80
2019-04-14T14:11:57.117Z,4.50
2019-04-14T14:14:45.778Z,6.22
2019-04-14T14:17:21.775Z,5.70
2019-04-14T14:20:05.111Z,4.30
2019-04-14T14:22:59.209Z,8.65
2019-04-14T14:25:37.510Z,12.03
2019-04-14T14:28:06.580Z,7.17
2019-04-14T14:30:36.013Z,8.28
2019-04-14T14:33:04.798Z,7.17
2019-04-14T14:35:33.571Z,3.12
2019-04-14T14:38:02.363Z,5.40
2019-04-14T14:40:31.132Z,5.00
2019-04-14T14:42:59.918Z,3.35
2019-04-14T14:45:33.045Z,4.05
2019-04-14T14:48:19.779Z,8.43
2019-04-14T14:50:55.901Z,7.40
2019-04-14T14:53:24.727Z,3.72
2019-04-14T14:55:53.573Z,4.00
2019-04-14T14:58:22.345Z,7.05
2019-04-14T15:00:51.292Z,6.87
2019-04-14T15:03:20.192Z,5.12
2019-04-14T15:05:48.966Z,4.72
2019-04-14T15:08:17.850Z,4.35
2019-04-14T15:10:46.638Z,12.05
2019-04-14T15:13:15.546Z,6.33
2019-04-14T15:15:44.446Z,15.00
2019-04-14T15:18:15.413Z,4.50
2019-04-14T15:20:44.257Z,4.87
2019-04-14T15:23:24.295Z,4.70
2019-04-14T15:25:44.560Z,4.80
2019-04-14T15:28:15.646Z,6.30
2019-04-14T15:30:43.779Z,4.65
2019-04-14T15:33:12.541Z,3.77
2019-04-14T15:35:41.721Z,5.20
2019-04-14T15:38:10.493Z,8.00
2019-04-14T15:40:39.487Z,8.55
2019-04-14T15:43:08.277Z,6.47
2019-04-14T15:45:37.059Z,3.75
2019-04-14T15:48:05.844Z,4.28
2019-04-14T15:50:34.674Z,4.15
2019-04-14T15:53:03.469Z,4.78
2019-04-14T15:55:32.351Z,4.05
2019-04-14T15:58:21.105Z,3.67
2019-04-14T16:00:51.561Z,5.12
2019-04-14T16:03:27.746Z,7.45
2019-04-14T16:06:04.309Z,3.65
2019-04-14T16:08:37.846Z,5.42
2019-04-14T16:11:14.338Z,6.55
2019-04-14T16:13:47.807Z,5.87
2019-04-14T16:16:18.429Z,10.32
2019-04-14T16:19:05.451Z,9.25
2019-04-14T16:21:34.306Z,13.72
2019-04-14T16:24:03.156Z,11.70
2019-04-14T16:26:33.597Z,9.20
2019-04-14T16:29:10.349Z,9.50
2019-04-14T16:31:43.930Z,7.83
2019-04-14T16:34:14.559Z,10.00
2019-04-14T16:36:44.973Z,3.42
2019-04-14T16:39:13.876Z,5.65
2019-04-14T16:41:45.095Z,5.25
2019-04-14T16:44:18.385Z,5.37
2019-04-14T16:46:47.402Z,3.92
2019-04-14T16:49:16.189Z,5.70
2019-04-14T16:51:52.577Z,7.33
2019-04-14T16:54:31.989Z,17.10
2019-04-14T16:59:52.446Z,10.55
2019-04-14T17:02:21.338Z,10.95
2019-04-14T17:04:50.190Z,6.58
2019-04-14T17:07:19.006Z,14.68
2019-04-14T17:09:48.407Z,12.00
2019-04-14T17:12:19.321Z,9.00
2019-04-14T17:14:50.067Z,10.80
2019-04-14T17:17:36.736Z,17.95
2019-04-14T17:20:09.152Z,19.45
2019-04-14T17:25:24.643Z,18.57
2019-04-14T17:28:07.349Z,16.80
2019-04-14T17:30:40.486Z,16.30
2019-04-14T17:33:10.973Z,9.98
2019-04-14T17:35:57.881Z,13.53
2019-04-14T17:38:40.699Z,10.50
2019-04-14T17:41:13.894Z,15.40
2019-04-14T17:43:44.533Z,11.28
2019-04-14T17:46:21.003Z,13.32
2019-04-14T17:49:00.428Z,13.98
2019-04-14T17:51:33.945Z,19.07
2019-04-14T17:54:04.457Z,14.20
2019-04-14T17:56:34.986Z,16.97
2019-04-14T17:59:07.152Z,16.12
2019-04-14T18:01:40.299Z,15.10
2019-04-14T18:04:10.719Z,13.53
2019-04-14T18:06:41.303Z,7.92
2019-04-14T18:09:29.759Z,10.48
2019-04-14T18:12:05.995Z,10.70
2019-04-14T18:14:39.217Z,12.80
2019-04-14T18:17:16.231Z,20.57
2019-04-14T18:19:46.843Z,16.30
2019-04-14T18:22:15.709Z,14.73
2019-04-14T18:24:44.600Z,12.82
2019-04-14T18:27:13.389Z,16.17
2019-04-14T18:29:43.821Z,11.48
2019-04-14T18:32:30.772Z,12.28
2019-04-14T18:35:03.889Z,15.93
2019-04-14T18:37:34.305Z,12.65
2019-04-14T18:40:13.731Z,14.47
2019-04-14T18:42:44.156Z,16.62
2019-04-14T18:45:21.818Z,18.10
2019-04-14T18:47:52.245Z,13.00
2019-04-14T18:50:25.102Z,11.63
2019-04-14T18:53:10.525Z,16.23
2019-04-14T18:55:43.732Z,14.03
2019-04-14T18:58:16.805Z,14.38
2019-04-14T19:00:47.230Z,11.95
2019-04-14T19:03:16.420Z,11.75
2019-04-14T19:05:45.266Z,14.35
2019-04-14T19:08:14.496Z,14.30
2019-04-14T19:10:44.898Z,13.45
2019-04-14T19:13:15.317Z,12.93
2019-04-14T19:15:48.593Z,16.73
2019-04-14T19:18:25.891Z,16.42
2019-04-14T19:20:59.633Z,16.95
2019-04-14T19:23:28.543Z,18.05
2019-04-14T19:26:11.205Z,15.85
2019-04-14T19:28:48.968Z,17.48
2019-04-14T19:31:17.891Z,15.85
2019-04-14T19:33:46.784Z,15.40
2019-04-14T19:36:39.938Z,21.25
2019-04-14T19:39:16.573Z,18.25
2019-04-14T19:41:45.510Z,15.85
2019-04-14T19:44:14.398Z,16.40
2019-04-14T19:46:44.379Z,17.75
2019-04-14T19:49:13.307Z,17.60
2019-04-14T19:51:42.300Z,17.75
2019-04-14T19:54:11.599Z,15.48
2019-04-14T19:56:41.369Z,22.40
2019-04-14T19:59:10.510Z,24.07
2019-04-14T20:01:39.506Z,18.75
2019-04-14T20:04:08.495Z,18.05
2019-04-14T20:06:37.281Z,18.17
2019-04-14T20:09:07.355Z,25.17
2019-04-14T20:11:36.395Z,21.07
2019-04-14T20:14:05.388Z,15.15
2019-04-14T20:16:56.529Z,18.02
2019-04-14T20:19:27.187Z,12.78
2019-04-14T20:21:57.869Z,12.28
2019-04-14T20:24:31.161Z,13.08
2019-04-14T20:27:22.275Z,11.57
2019-04-14T20:30:17.985Z,20.10
2019-04-14T20:32:54.742Z,17.40
2019-04-14T20:35:27.680Z,15.40
2019-04-14T20:38:01.780Z,25.15
2019-04-14T20:40:30.861Z,13.72
2019-04-14T20:43:14.084Z,10.13
2019-04-14T20:45:43.248Z,13.50
2019-04-14T20:48:15.359Z,13.50
2019-04-14T20:50:44.349Z,8.20
2019-04-14T20:53:13.338Z,11.28
2019-04-14T20:55:47.108Z,8.88
2019-04-14T20:58:12.789Z,10.68
2019-04-14T21:00:41.926Z,11.22
2019-04-14T21:03:28.849Z,9.58
2019-04-14T21:06:05.126Z,9.45
2019-04-14T21:08:41.090Z,8.65
2019-04-14T21:11:20.836Z,9.48
2019-04-14T21:13:54.016Z,12.18
2019-04-14T21:16:27.522Z,11.18
2019-04-14T21:19:01.025Z,7.28
2019-04-14T21:21:37.698Z,7.28
2019-04-14T21:24:17.541Z,9.03
2019-04-14T21:26:50.734Z,9.95
2019-04-14T21:29:39.894Z,10.70
2019-04-14T21:32:20.667Z,6.10
2019-04-14T21:35:00.208Z,7.05
2019-04-14T21:37:47.017Z,8.93
2019-04-14T21:40:17.546Z,8.73
2019-04-14T21:42:46.438Z,7.12
2019-04-14T21:45:15.431Z,8.00
2019-04-14T21:47:44.424Z,9.45
2019-04-14T21:50:13.606Z,9.13
2019-04-14T21:52:44.045Z,8.23
2019-04-14T21:55:12.941Z,10.78
2019-04-14T21:57:58.728Z,10.85
2019-04-14T22:00:57.622Z,11.25
2019-04-14T22:03:37.365Z,12.28
2019-04-14T22:06:13.831Z,13.25
2019-04-14T22:08:49.988Z,11.45
2019-04-14T22:11:26.771Z,13.83
2019-04-14T22:13:55.764Z,13.95
2019-04-14T22:16:24.756Z,12.73
2019-04-14T22:18:54.057Z,11.20
2019-04-14T22:21:23.116Z,8.10
2019-04-14T22:24:01.197Z,6.78
2019-04-14T22:26:26.290Z,6.10
2019-04-14T22:28:53.199Z,7.10
2019-04-14T22:31:22.094Z,3.85
2019-04-14T22:33:51.087Z,5.55
2019-04-14T22:36:20.084Z,5.45
2019-04-14T22:38:49.077Z,4.60
2019-04-14T22:41:18.068Z,4.75
2019-04-14T22:43:46.941Z,6.42
2019-04-14T22:46:15.844Z,3.08
2019-04-14T22:48:44.743Z,5.35
2019-04-14T22:51:13.735Z,4.47
2019-04-14T22:53:42.727Z,3.47
2019-04-14T22:56:11.720Z,3.40
2019-04-14T22:58:40.714Z,6.20
2019-04-14T23:01:23.536Z,5.25
2019-04-14T23:04:10.647Z,3.75
2019-04-14T23:06:56.024Z,4.42
2019-04-14T23:09:38.432Z,4.28
2019-04-14T23:12:08.960Z,5.12
2019-04-14T23:14:45.119Z,3.62
2019-04-14T23:17:21.387Z,4.05
2019-04-14T23:19:54.681Z,7.58
2019-04-14T23:22:25.210Z,6.45
2019-04-14T23:24:54.205Z,4.83
2019-04-14T23:27:23.196Z,4.05
2019-04-14T23:29:52.187Z,3.75
2019-04-14T23:32:21.180Z,6.62
2019-04-14T23:34:51.097Z,7.70
2019-04-14T23:37:20.088Z,5.05
2019-04-14T23:39:49.083Z,5.20
2019-04-14T23:42:17.867Z,7.20
2019-04-14T23:44:46.760Z,6.90
2019-04-14T23:47:15.754Z,7.85
2019-04-14T23:49:44.751Z,6.08
2019-04-14T23:52:13.739Z,9.18
2019-04-14T23:54:42.733Z,7.62
2019-04-14T23:57:11.726Z,6.83
2019-04-14T23:59:40.719Z,7.65
